Redwood National Park, CA

09:31 AM PST am 06. März 2015 (GMT -0800)
APRSWXNET Arcata CA US | Change Station
CLOSE
Current Station
Persönliche Wetterstationen
Location: Arcata, CA
Höhe: 183 ft
Wetterstationen in der Umgebung

Höhe 183 ft 40.88 °N, 124.08 °W | Updated 31 minutes ago

Heiter
Heiter
51 °F
gefühlte 51 °F
N
0
Wind Wechselnd Wind aus Süd-Südost
Gusts 1.0 mph

Heute
Max. -- | schwach -- °F
--% Regenrisiko
Gestern
Max. -- | schwach -- °F
Precip. -- inch
6:42 AM 6:13 PM
Vollmond, 99% visible
Druck 30.37 inch
Sichtweite 10.0 Meilen
Wolken Heiter
Taupunkt 45 °F
Feuchtigkeit 81%
Regen inch
Schneehöhe Nicht verfügbar..
UV 2 von 12
Pollen 8.10 von 12
Luftqualität Nicht verfügbar..
Flu Activity Nicht verfügbar..
METAR KACV 061653Z AUTO 00000KT 10SM CLR 11/06 A3034 RMK AO2 SLP282 T01060061

More Conditions Fewer Conditions

Druck 30.37 inch
Sichtweite 10.0 Meilen
Wolken Heiter
Taupunkt 45 °F
Feuchtigkeit 81%
Regen inch
Schneehöhe Nicht verfügbar..
UV 2 von 12
Pollen 8.10 von 12
Luftqualität Nicht verfügbar..
Flu Activity Nicht verfügbar..
METAR KACV 061653Z AUTO 00000KT 10SM CLR 11/06 A3034 RMK AO2 SLP282 T01060061

More Conditions Fewer Conditions

10-Day Weather Forecast

Almanac

Astronomie

Mar. 06, 2015 Aufgang Untergang
Genaue Zeit
Bürgerliche Dämmerung
Nautische Dämmerung
Astronomische Dämmerung
Mond
Länge des sichtbaren Lichts
Tageslänge
Tomorrow will be .
, % of the Moon is Illuminated

Heutige Rekorde

State Highs State Lows

Community

WunderPhotos

Upload Photos

1,803,345 Fotos hochgeladen!

WunderBlogs® & News

Nearby

Luftqualität

  Luftqualität LQ Index Schadstoff
Not available.

Schneehöhe

Station Depth Höhe

Erdbebenaktivität

Stadt Distance Mag. Time & Date
Minimum magnitude displayed is 2.5.

küstennahe Wassertemperaturen

Ort Temperatur

Wetterstationen in der Umgebung